createdAt,value
2023-02-02T00:00:22.838Z,67.38891602
2023-02-02T00:01:23.316Z,67.49267578
2023-02-02T00:02:24.456Z,67.28515625
2023-02-02T00:03:25.586Z,67.21191406
2023-02-02T00:04:26.101Z,67.31567383
2023-02-02T00:05:26.490Z,67.28515625
2023-02-02T00:06:27.055Z,67.18139648
2023-02-02T00:07:27.439Z,67.41943359
2023-02-02T00:08:27.876Z,67.41943359
2023-02-02T00:09:28.424Z,67.38891602
2023-02-02T00:10:28.898Z,67.41943359
2023-02-02T00:11:29.340Z,67.41943359
2023-02-02T00:12:29.828Z,67.41943359
2023-02-02T00:13:31.087Z,67.41943359
2023-02-02T00:14:31.595Z,67.18139648
2023-02-02T00:15:31.987Z,67.07763672
2023-02-02T00:16:32.502Z,67.07763672
2023-02-02T00:17:33.042Z,66.97387695
2023-02-02T00:18:33.495Z,66.97387695
2023-02-02T00:19:33.957Z,66.87011719
2023-02-02T00:20:34.483Z,66.76635742
2023-02-02T00:21:34.903Z,66.66259766
2023-02-02T00:22:35.342Z,66.76635742
2023-02-02T00:23:36.667Z,66.87011719
2023-02-02T00:25:07.449Z,66.76635742
2023-02-02T00:26:07.861Z,66.76635742
2023-02-02T00:27:09.099Z,66.66259766
2023-02-02T00:28:09.585Z,66.76635742
2023-02-02T00:29:10.018Z,66.55883789
2023-02-02T00:30:10.634Z,66.45507813
2023-02-02T00:31:11.182Z,66.55883789
2023-02-02T00:32:12.591Z,66.66259766
2023-02-02T00:33:13.287Z,66.45507813
2023-02-02T00:34:14.374Z,66.35131836
2023-02-02T00:35:14.837Z,66.25366211
2023-02-02T00:36:15.368Z,66.35131836
2023-02-02T00:37:15.919Z,66.35131836
2023-02-02T00:38:16.506Z,66.35131836
2023-02-02T00:39:17.044Z,66.35131836
2023-02-02T00:40:17.534Z,66.25366211
2023-02-02T00:41:18.018Z,66.25366211
2023-02-02T00:42:18.479Z,66.35131836
2023-02-02T00:43:19.119Z,66.25366211
2023-02-02T00:44:20.382Z,66.35131836
2023-02-02T00:45:20.927Z,66.35131836
2023-02-02T00:46:21.425Z,66.35131836
2023-02-02T00:47:21.916Z,66.45507813
2023-02-02T00:48:22.344Z,66.35131836
2023-02-02T00:49:22.923Z,66.35131836
2023-02-02T00:50:23.674Z,66.35131836
2023-02-02T00:51:24.122Z,66.35131836
2023-02-02T00:52:24.603Z,66.35131836
2023-02-02T00:53:25.621Z,66.14990234
2023-02-02T00:54:26.170Z,65.94238281
2023-02-02T00:55:26.930Z,65.94238281
2023-02-02T00:56:27.926Z,65.94238281
2023-02-02T00:57:28.375Z,65.94238281
2023-02-02T00:58:29.636Z,65.83862305
2023-02-02T00:59:30.261Z,65.73486328
2023-02-02T01:00:30.777Z,65.94238281
2023-02-02T01:01:31.297Z,66.04614258
2023-02-02T01:02:31.884Z,65.94238281
2023-02-02T01:03:33.084Z,66.83959961
2023-02-02T01:04:33.623Z,66.42456055
2023-02-02T01:05:34.159Z,66.83959961
2023-02-02T01:06:34.689Z,66.73583984
2023-02-02T01:07:35.175Z,66.94335938
2023-02-02T01:08:35.626Z,66.52832031
2023-02-02T01:10:06.647Z,65.91186523
2023-02-02T01:11:07.246Z,66.015625
2023-02-02T01:12:07.767Z,66.11938477
2023-02-02T01:13:08.332Z,65.7043457
2023-02-02T01:14:09.431Z,65.39306641
2023-02-02T01:15:09.972Z,65.25878906
2023-02-02T01:16:10.852Z,65.1550293
2023-02-02T01:17:11.367Z,65.1550293
2023-02-02T01:18:11.971Z,65.05126953
2023-02-02T01:19:12.537Z,64.94750977
2023-02-02T01:20:12.977Z,64.73999023
2023-02-02T01:21:13.510Z,64.73999023
2023-02-02T01:22:14.116Z,64.84375
2023-02-02T01:23:14.734Z,65.08178711
2023-02-02T01:24:15.838Z,65.18554688
2023-02-02T01:25:16.252Z,65.39306641
2023-02-02T01:26:16.847Z,65.39306641
2023-02-02T01:27:18.177Z,65.39306641
2023-02-02T01:28:18.692Z,65.39306641
2023-02-02T01:29:19.389Z,65.49682617
2023-02-02T01:30:19.932Z,65.60058594
2023-02-02T01:31:20.462Z,65.49682617
2023-02-02T01:32:21.650Z,65.18554688
2023-02-02T01:33:22.248Z,65.28930664
2023-02-02T01:34:23.367Z,65.18554688
2023-02-02T01:35:24.392Z,65.18554688
2023-02-02T01:36:24.504Z,65.28930664
2023-02-02T01:37:24.934Z,65.28930664
2023-02-02T01:38:25.633Z,65.39306641
2023-02-02T01:39:26.170Z,65.39306641
2023-02-02T01:40:26.788Z,65.39306641
2023-02-02T01:41:27.305Z,65.28930664
2023-02-02T01:42:27.774Z,65.28930664
2023-02-02T01:43:28.371Z,65.39306641
2023-02-02T01:44:29.876Z,65.39306641
2023-02-02T01:45:30.411Z,65.39306641
2023-02-02T01:46:31.034Z,65.39306641
2023-02-02T01:47:31.428Z,65.28930664
2023-02-02T01:48:31.851Z,65.28930664
2023-02-02T01:49:32.580Z,65.28930664
2023-02-02T01:50:33.110Z,65.39306641
2023-02-02T01:51:33.715Z,65.28930664
2023-02-02T01:52:34.177Z,65.39306641
2023-02-02T01:53:34.648Z,65.1550293
2023-02-02T01:55:06.247Z,64.84375
2023-02-02T01:56:07.368Z,64.94750977
2023-02-02T01:57:07.902Z,65.05126953
2023-02-02T01:58:08.329Z,65.05126953
2023-02-02T01:59:08.995Z,65.05126953
2023-02-02T02:00:09.555Z,64.94750977
2023-02-02T02:01:10.137Z,65.05126953
2023-02-02T02:02:11.014Z,64.94750977
2023-02-02T02:03:11.473Z,64.84375
2023-02-02T02:04:12.670Z,64.87426758
2023-02-02T02:05:13.127Z,64.77050781
2023-02-02T02:06:13.743Z,64.87426758
2023-02-02T02:07:14.270Z,64.97802734
2023-02-02T02:08:14.828Z,64.97802734
2023-02-02T02:09:15.473Z,64.87426758
2023-02-02T02:10:15.872Z,64.97802734
2023-02-02T02:11:16.531Z,65.08178711
2023-02-02T02:12:17.115Z,65.21606445
2023-02-02T02:13:17.637Z,65.31982422
2023-02-02T02:14:19.096Z,65.31982422
2023-02-02T02:15:19.506Z,65.42358398
2023-02-02T02:16:20.098Z,65.42358398
2023-02-02T02:17:20.540Z,65.52734375
2023-02-02T02:18:21.142Z,65.63110352
2023-02-02T02:19:21.687Z,65.73486328
2023-02-02T02:20:22.109Z,65.73486328
2023-02-02T02:21:22.612Z,65.83862305
2023-02-02T02:22:23.065Z,65.63110352
2023-02-02T02:23:23.632Z,65.63110352
2023-02-02T02:24:25.092Z,65.42358398
2023-02-02T02:25:26.109Z,65.52734375
2023-02-02T02:26:27.204Z,65.42358398
2023-02-02T02:27:27.750Z,65.42358398
2023-02-02T02:28:29.126Z,65.39306641
2023-02-02T02:29:29.761Z,65.28930664
2023-02-02T02:30:30.231Z,65.18554688
2023-02-02T02:31:30.852Z,65.28930664
2023-02-02T02:32:31.209Z,65.28930664
2023-02-02T02:33:31.748Z,65.28930664
2023-02-02T02:34:33.192Z,65.08178711
2023-02-02T02:35:33.762Z,65.08178711
2023-02-02T02:36:34.228Z,65.08178711
2023-02-02T02:37:35.185Z,65.08178711
2023-02-02T02:39:05.916Z,64.97802734
2023-02-02T02:40:06.544Z,64.97802734
2023-02-02T02:41:07.140Z,64.87426758
2023-02-02T02:42:07.533Z,64.87426758
2023-02-02T02:43:07.969Z,64.87426758
2023-02-02T02:44:09.088Z,64.97802734
2023-02-02T02:45:09.771Z,64.97802734
2023-02-02T02:46:10.653Z,65.08178711
2023-02-02T02:47:11.215Z,65.18554688
2023-02-02T02:48:11.648Z,65.39306641
2023-02-02T02:49:12.114Z,65.49682617
2023-02-02T02:50:12.855Z,65.49682617
2023-02-02T02:51:13.462Z,65.60058594
2023-02-02T02:52:13.952Z,65.60058594
2023-02-02T02:53:14.421Z,65.39306641
2023-02-02T02:54:15.581Z,65.39306641
2023-02-02T02:55:16.142Z,65.39306641
2023-02-02T02:56:16.669Z,65.39306641
2023-02-02T02:57:17.180Z,65.28930664
2023-02-02T02:58:18.624Z,65.18554688
2023-02-02T02:59:19.116Z,65.18554688
2023-02-02T03:00:19.559Z,65.08178711
2023-02-02T03:01:20.334Z,64.97802734
2023-02-02T03:02:20.820Z,65.08178711
2023-02-02T03:03:21.318Z,65.08178711
2023-02-02T03:04:21.892Z,65.08178711
2023-02-02T03:05:22.800Z,64.97802734
2023-02-02T03:06:22.815Z,64.97802734
2023-02-02T03:07:23.433Z,64.97802734
2023-02-02T03:08:23.957Z,65.08178711
2023-02-02T03:09:24.537Z,64.97802734
2023-02-02T03:10:24.962Z,65.08178711
2023-02-02T03:11:25.572Z,65.08178711
2023-02-02T03:12:27.511Z,65.08178711
2023-02-02T03:13:28.049Z,64.87426758
2023-02-02T03:14:29.102Z,64.77050781
2023-02-02T03:15:29.637Z,64.97802734
2023-02-02T03:16:30.068Z,64.87426758
2023-02-02T03:17:30.600Z,64.97802734
2023-02-02T03:18:31.211Z,65.08178711
2023-02-02T03:19:31.754Z,65.08178711
2023-02-02T03:20:32.291Z,65.08178711
2023-02-02T03:21:32.818Z,65.08178711
2023-02-02T03:22:33.212Z,65.18554688
2023-02-02T03:23:33.843Z,65.18554688
2023-02-02T03:24:35.720Z,65.39306641
2023-02-02T03:26:06.562Z,65.39306641
2023-02-02T03:27:07.069Z,65.28930664
2023-02-02T03:28:08.388Z,65.28930664
2023-02-02T03:29:09.177Z,65.25878906
2023-02-02T03:30:09.692Z,65.39306641
2023-02-02T03:31:10.644Z,65.36254883
2023-02-02T03:32:11.157Z,65.25878906
2023-02-02T03:33:11.726Z,65.28930664
2023-02-02T03:34:12.248Z,65.39306641
2023-02-02T03:35:12.838Z,65.49682617
2023-02-02T03:36:14.355Z,65.60058594
2023-02-02T03:37:14.842Z,65.39306641
2023-02-02T03:38:15.388Z,65.39306641
2023-02-02T03:39:16.033Z,65.39306641
2023-02-02T03:40:16.738Z,65.39306641
2023-02-02T03:41:17.259Z,65.49682617
2023-02-02T03:42:17.759Z,65.39306641
2023-02-02T03:43:18.187Z,65.49682617
2023-02-02T03:44:18.702Z,65.49682617
2023-02-02T03:45:19.931Z,65.60058594
2023-02-02T03:46:20.505Z,65.60058594
2023-02-02T03:47:20.975Z,65.60058594
2023-02-02T03:48:21.432Z,65.7043457
2023-02-02T03:49:22.005Z,65.80810547
2023-02-02T03:50:22.523Z,65.91186523
2023-02-02T03:51:23.101Z,66.015625
2023-02-02T03:52:23.771Z,66.11938477
2023-02-02T03:53:24.820Z,65.91186523
2023-02-02T03:54:25.356Z,66.015625
2023-02-02T03:55:26.175Z,65.91186523
2023-02-02T03:56:27.199Z,66.015625
2023-02-02T03:57:27.724Z,66.015625
2023-02-02T03:58:28.228Z,66.015625
2023-02-02T03:59:28.719Z,66.015625
2023-02-02T04:00:29.158Z,66.11938477
2023-02-02T04:01:29.684Z,66.11938477
2023-02-02T04:02:30.347Z,66.22314453
2023-02-02T04:03:30.837Z,66.22314453
2023-02-02T04:04:31.371Z,66.22314453
2023-02-02T04:05:32.919Z,66.22314453
2023-02-02T04:06:33.480Z,66.22314453
2023-02-02T04:08:04.870Z,66.11938477
2023-02-02T04:09:05.398Z,66.11938477
2023-02-02T04:10:05.924Z,66.11938477
2023-02-02T04:11:06.414Z,66.11938477
2023-02-02T04:12:07.013Z,66.11938477
2023-02-02T04:13:07.643Z,66.32080078
2023-02-02T04:14:08.106Z,66.32080078
2023-02-02T04:15:09.530Z,66.32080078
2023-02-02T04:16:10.909Z,66.32080078
2023-02-02T04:17:11.398Z,66.42456055
2023-02-02T04:18:11.934Z,66.55883789
2023-02-02T04:19:12.535Z,66.55883789
2023-02-02T04:20:13.045Z,66.55883789
2023-02-02T04:21:13.551Z,66.45507813
2023-02-02T04:22:14.074Z,66.55883789
2023-02-02T04:23:14.575Z,66.55883789
2023-02-02T04:24:15.184Z,66.55883789
2023-02-02T04:25:16.402Z,66.55883789
2023-02-02T04:26:16.892Z,66.55883789
2023-02-02T04:27:18.129Z,66.55883789
2023-02-02T04:28:18.630Z,66.66259766
2023-02-02T04:29:19.181Z,66.55883789
2023-02-02T04:30:19.763Z,66.55883789
2023-02-02T04:31:20.316Z,66.55883789
2023-02-02T04:32:20.767Z,66.45507813
2023-02-02T04:33:21.225Z,66.35131836
2023-02-02T04:34:21.673Z,66.45507813
2023-02-02T04:35:23.513Z,66.45507813
2023-02-02T04:36:23.468Z,66.45507813
2023-02-02T04:37:24.008Z,66.35131836
2023-02-02T04:38:24.568Z,66.35131836
2023-02-02T04:39:25.011Z,66.25366211
2023-02-02T04:40:26.207Z,66.25366211
2023-02-02T04:41:26.772Z,66.25366211
2023-02-02T04:42:27.262Z,66.14990234
2023-02-02T04:43:27.776Z,66.25366211
2023-02-02T04:44:28.200Z,66.35131836
2023-02-02T04:45:29.416Z,66.45507813
2023-02-02T04:46:30.049Z,66.45507813
2023-02-02T04:47:30.521Z,66.63208008
2023-02-02T04:48:31.164Z,66.63208008
2023-02-02T04:49:31.638Z,66.52832031
2023-02-02T04:50:32.047Z,66.52832031
2023-02-02T04:51:32.643Z,66.42456055
2023-02-02T04:52:33.127Z,66.42456055
2023-02-02T04:54:04.216Z,66.52832031
2023-02-02T04:55:04.658Z,66.42456055
2023-02-02T04:56:05.097Z,66.32080078
2023-02-02T04:57:05.777Z,66.42456055
2023-02-02T04:58:06.868Z,66.42456055
2023-02-02T04:59:07.535Z,66.42456055
2023-02-02T05:00:08.007Z,66.42456055
2023-02-02T05:01:08.509Z,66.32080078
2023-02-02T05:02:08.934Z,66.22314453
2023-02-02T05:03:09.522Z,66.11938477
2023-02-02T05:04:10.150Z,66.015625
2023-02-02T05:05:11.570Z,65.60058594
2023-02-02T05:06:14.701Z,65.49682617
2023-02-02T05:07:12.657Z,65.39306641
2023-02-02T05:08:13.321Z,65.28930664
2023-02-02T05:09:13.869Z,65.28930664
2023-02-02T05:10:14.530Z,65.18554688
2023-02-02T05:11:15.117Z,65.28930664
2023-02-02T05:12:15.565Z,65.39306641
2023-02-02T05:13:16.413Z,65.39306641
2023-02-02T05:14:17.393Z,65.18554688
2023-02-02T05:15:18.853Z,65.08178711
2023-02-02T05:16:19.384Z,64.77050781
2023-02-02T05:17:19.944Z,64.87426758
2023-02-02T05:18:20.430Z,64.97802734
2023-02-02T05:19:21.100Z,64.97802734
2023-02-02T05:20:21.607Z,64.97802734
2023-02-02T05:21:22.219Z,64.97802734
2023-02-02T05:22:22.671Z,64.97802734
2023-02-02T05:23:23.091Z,64.97802734
2023-02-02T05:24:23.713Z,64.97802734
2023-02-02T05:25:25.439Z,65.18554688
2023-02-02T05:26:25.710Z,65.18554688
2023-02-02T05:27:26.794Z,65.28930664
2023-02-02T05:28:27.298Z,65.18554688
2023-02-02T05:29:27.750Z,65.08178711
2023-02-02T05:30:28.322Z,64.87426758
2023-02-02T05:31:28.887Z,64.87426758
2023-02-02T05:32:29.394Z,64.87426758
2023-02-02T05:33:30.891Z,64.87426758
2023-02-02T05:34:31.356Z,64.97802734
2023-02-02T05:35:31.896Z,64.97802734
2023-02-02T05:36:32.540Z,64.97802734
2023-02-02T05:38:04.397Z,64.97802734
2023-02-02T05:39:04.940Z,64.87426758
2023-02-02T05:40:05.433Z,64.87426758
2023-02-02T05:41:05.972Z,64.97802734
2023-02-02T05:42:06.555Z,64.87426758
2023-02-02T05:43:07.601Z,64.97802734
2023-02-02T05:44:08.097Z,65.08178711
2023-02-02T05:45:08.607Z,64.97802734
2023-02-02T05:46:10.026Z,65.08178711
2023-02-02T05:47:10.601Z,65.18554688
2023-02-02T05:48:11.160Z,65.08178711
2023-02-02T05:49:11.605Z,65.18554688
2023-02-02T05:50:12.066Z,65.18554688
2023-02-02T05:51:12.521Z,65.18554688
2023-02-02T05:52:13.436Z,65.28930664
2023-02-02T05:53:14.025Z,65.28930664
2023-02-02T05:54:14.526Z,65.28930664
2023-02-02T05:55:15.599Z,65.28930664
2023-02-02T05:56:16.177Z,65.28930664
2023-02-02T05:57:16.684Z,65.39306641
2023-02-02T05:58:17.995Z,65.49682617
2023-02-02T05:59:18.654Z,65.60058594
2023-02-02T06:00:19.106Z,65.60058594
2023-02-02T06:01:19.582Z,65.7043457
2023-02-02T06:02:20.043Z,65.94238281
2023-02-02T06:03:20.792Z,66.11938477
2023-02-02T06:04:21.212Z,66.25366211
2023-02-02T06:05:22.902Z,66.35131836
2023-02-02T06:06:23.209Z,66.45507813
2023-02-02T06:07:23.643Z,66.55883789
2023-02-02T06:08:24.214Z,66.55883789
2023-02-02T06:09:24.806Z,66.45507813
2023-02-02T06:10:25.358Z,66.45507813
2023-02-02T06:11:25.782Z,66.45507813
2023-02-02T06:12:26.347Z,66.35131836
2023-02-02T06:13:26.783Z,66.25366211
2023-02-02T06:14:27.398Z,66.35131836
2023-02-02T06:15:28.743Z,66.25366211
2023-02-02T06:16:29.087Z,66.35131836
2023-02-02T06:17:29.718Z,66.45507813
2023-02-02T06:18:30.290Z,66.45507813
2023-02-02T06:19:30.746Z,66.45507813
2023-02-02T06:20:31.396Z,66.66259766
2023-02-02T06:21:31.989Z,66.66259766
2023-02-02T06:23:02.998Z,66.76635742
2023-02-02T06:24:03.526Z,66.76635742
2023-02-02T06:25:04.007Z,66.76635742
2023-02-02T06:26:05.513Z,66.87011719
2023-02-02T06:27:06.011Z,66.87011719
2023-02-02T06:28:07.137Z,66.87011719
2023-02-02T06:29:07.706Z,66.87011719
2023-02-02T06:30:08.099Z,66.76635742
2023-02-02T06:31:08.860Z,66.76635742
2023-02-02T06:32:09.333Z,66.87011719
2023-02-02T06:33:09.811Z,66.76635742
2023-02-02T06:34:40.621Z,66.97387695
2023-02-02T06:36:11.905Z,66.97387695
2023-02-02T06:37:12.505Z,66.97387695
2023-02-02T06:38:13.022Z,66.97387695
2023-02-02T06:39:13.511Z,67.07763672
2023-02-02T06:40:13.991Z,66.97387695
2023-02-02T06:41:14.561Z,67.18139648
2023-02-02T06:42:21.162Z,67.28515625
2023-02-02T06:43:15.782Z,67.28515625
2023-02-02T06:44:16.389Z,67.18139648
2023-02-02T06:45:16.892Z,67.38891602
2023-02-02T06:46:18.380Z,67.49267578
2023-02-02T06:47:18.840Z,67.49267578
2023-02-02T06:48:19.318Z,67.38891602
2023-02-02T06:49:19.941Z,67.38891602
2023-02-02T06:50:20.476Z,67.38891602
2023-02-02T06:51:20.888Z,67.07763672
2023-02-02T06:52:21.342Z,67.07763672
2023-02-02T06:53:21.935Z,67.07763672
2023-02-02T06:54:22.453Z,67.07763672
2023-02-02T06:55:23.351Z,66.97387695
2023-02-02T06:56:24.280Z,66.97387695
2023-02-02T06:57:25.641Z,67.07763672
2023-02-02T06:58:26.268Z,67.07763672
2023-02-02T06:59:26.733Z,67.28515625
2023-02-02T07:00:27.435Z,67.28515625
2023-02-02T07:01:27.881Z,67.18139648
2023-02-02T07:02:28.340Z,67.18139648
2023-02-02T07:03:28.772Z,67.07763672
2023-02-02T07:04:29.375Z,67.18139648
2023-02-02T07:05:30.856Z,67.28515625
2023-02-02T07:06:31.350Z,67.83447266
2023-02-02T07:08:02.451Z,67.93823242
2023-02-02T07:09:03.553Z,68.14575195
2023-02-02T07:10:03.521Z,68.14575195
2023-02-02T07:11:15.417Z,68.14575195
2023-02-02T07:12:04.530Z,68.14575195
2023-02-02T07:13:05.097Z,68.24951172
2023-02-02T07:14:05.559Z,68.35327148
2023-02-02T07:15:06.074Z,68.45703125
2023-02-02T07:16:07.616Z,68.35327148
2023-02-02T07:17:08.133Z,68.56079102
2023-02-02T07:18:08.628Z,68.56079102
2023-02-02T07:19:09.084Z,68.66455078
2023-02-02T07:20:09.677Z,68.45703125
2023-02-02T07:21:10.558Z,68.45703125
2023-02-02T07:22:11.009Z,68.35327148
2023-02-02T07:23:11.563Z,68.24951172
2023-02-02T07:24:12.007Z,68.24951172
2023-02-02T07:25:12.444Z,68.14575195
2023-02-02T07:26:13.642Z,68.11523438
2023-02-02T07:27:14.133Z,68.01147461
2023-02-02T07:28:15.681Z,67.90771484
2023-02-02T07:29:16.151Z,67.90771484
2023-02-02T07:30:16.573Z,67.90771484
2023-02-02T07:31:17.438Z,67.90771484
2023-02-02T07:32:17.782Z,68.01147461
2023-02-02T07:33:18.279Z,67.90771484
2023-02-02T07:34:18.784Z,68.01147461
2023-02-02T07:35:19.194Z,67.90771484
2023-02-02T07:36:19.799Z,68.01147461
2023-02-02T07:37:20.357Z,67.90771484
2023-02-02T07:38:20.832Z,67.90771484
2023-02-02T07:39:21.439Z,67.90771484
2023-02-02T07:40:21.865Z,67.90771484
2023-02-02T07:41:22.270Z,67.80395508
2023-02-02T07:42:22.900Z,67.70019531
2023-02-02T07:43:23.378Z,67.80395508
2023-02-02T07:44:23.954Z,67.80395508
2023-02-02T07:45:27.884Z,67.80395508
2023-02-02T07:46:24.870Z,67.80395508
2023-02-02T07:47:25.565Z,67.90771484
2023-02-02T07:48:26.072Z,67.90771484
2023-02-02T07:49:26.646Z,67.80395508
2023-02-02T07:50:27.367Z,67.80395508
2023-02-02T07:51:27.635Z,67.90771484
2023-02-02T07:52:28.207Z,67.70019531
2023-02-02T07:53:28.805Z,67.80395508
2023-02-02T07:54:29.383Z,67.87719727
2023-02-02T07:55:30.247Z,67.7734375
2023-02-02T07:57:01.817Z,67.7734375
2023-02-02T07:58:02.425Z,67.66967773
2023-02-02T07:59:03.935Z,67.7734375
2023-02-02T08:00:04.455Z,67.66967773
2023-02-02T08:01:05.051Z,67.66967773
2023-02-02T08:02:05.646Z,67.66967773
2023-02-02T08:03:05.965Z,67.7734375
2023-02-02T08:04:06.528Z,67.7734375
2023-02-02T08:05:07.092Z,67.87719727
2023-02-02T08:06:08.279Z,67.7734375
2023-02-02T08:07:08.779Z,67.87719727
2023-02-02T08:08:09.204Z,67.98095703
2023-02-02T08:09:09.784Z,67.87719727
2023-02-02T08:10:10.637Z,67.7734375
2023-02-02T08:11:11.911Z,67.87719727
2023-02-02T08:12:12.491Z,67.98095703
2023-02-02T08:13:12.910Z,68.0847168
2023-02-02T08:14:13.447Z,68.0847168
2023-02-02T08:15:14.924Z,68.0847168
2023-02-02T08:16:16.216Z,68.0847168
2023-02-02T08:17:16.631Z,67.7734375
2023-02-02T08:18:17.079Z,67.7734375
2023-02-02T08:19:17.498Z,67.7734375
2023-02-02T08:20:18.026Z,67.87719727
2023-02-02T08:21:18.595Z,67.98095703
2023-02-02T08:22:20.406Z,67.98095703
2023-02-02T08:23:19.604Z,67.98095703
2023-02-02T08:24:20.071Z,67.7734375
2023-02-02T08:25:20.724Z,67.98095703
2023-02-02T08:26:22.200Z,67.87719727
2023-02-02T08:27:22.663Z,67.87719727
2023-02-02T08:28:23.808Z,68.18847656
2023-02-02T08:29:24.234Z,68.90869141
2023-02-02T08:30:25.786Z,68.70117188
2023-02-02T08:31:26.271Z,68.70117188
2023-02-02T08:32:26.633Z,68.39599609
2023-02-02T08:33:27.086Z,68.0847168
2023-02-02T08:34:27.552Z,68.05419922
2023-02-02T08:35:28.026Z,68.46313477
2023-02-02T08:36:29.086Z,68.46313477
2023-02-02T08:37:29.632Z,67.95043945
2023-02-02T08:38:30.264Z,67.63916016
2023-02-02T08:40:01.387Z,67.50488281
2023-02-02T08:41:01.850Z,67.29736328
2023-02-02T08:42:02.326Z,67.19360352
2023-02-02T08:43:02.792Z,67.19360352
2023-02-02T08:44:03.356Z,67.19360352
2023-02-02T08:46:01.171Z,66.77856445
2023-02-02T08:46:13.115Z,66.98608398
2023-02-02T08:47:05.453Z,66.77856445
2023-02-02T08:48:12.111Z,66.46728516
2023-02-02T08:49:07.103Z,65.85083008
2023-02-02T08:50:07.586Z,66.05834961
2023-02-02T08:51:08.144Z,66.05834961
2023-02-02T08:52:08.661Z,66.16210938
2023-02-02T08:53:09.960Z,66.05834961
2023-02-02T08:54:10.636Z,66.25976563
2023-02-02T08:55:11.143Z,66.25976563
2023-02-02T08:56:11.742Z,66.16210938
2023-02-02T08:57:12.831Z,66.16210938
2023-02-02T08:58:13.908Z,66.16210938
2023-02-02T08:59:15.166Z,66.25976563
2023-02-02T09:00:15.706Z,66.05834961
2023-02-02T09:01:16.546Z,66.05834961
2023-02-02T09:02:17.239Z,65.92407227
2023-02-02T09:03:18.354Z,65.5090332
2023-02-02T09:04:18.912Z,65.71655273
2023-02-02T09:05:19.432Z,65.71655273
2023-02-02T09:06:19.911Z,65.61279297
2023-02-02T09:07:21.288Z,65.40527344
2023-02-02T09:08:21.016Z,65.09399414
2023-02-02T09:09:22.429Z,64.99023438
2023-02-02T09:10:23.034Z,65.30151367
2023-02-02T09:11:23.523Z,65.30151367
2023-02-02T09:12:24.005Z,65.30151367
2023-02-02T09:13:24.665Z,65.09399414
2023-02-02T09:14:25.141Z,64.99023438
2023-02-02T09:15:26.101Z,65.19775391
2023-02-02T09:16:26.517Z,65.30151367
2023-02-02T09:17:27.805Z,65.12451172
2023-02-02T09:18:28.353Z,65.09399414
2023-02-02T09:19:29.057Z,65.19775391
2023-02-02T09:20:29.723Z,65.30151367
2023-02-02T09:22:00.770Z,65.09399414
2023-02-02T09:23:01.274Z,65.19775391
2023-02-02T09:24:01.866Z,65.19775391
2023-02-02T09:25:02.403Z,65.09399414
2023-02-02T09:26:03.008Z,64.99023438
2023-02-02T09:27:04.349Z,65.09399414
2023-02-02T09:28:05.612Z,65.30151367
2023-02-02T09:29:06.176Z,65.30151367
2023-02-02T09:30:06.607Z,65.30151367
2023-02-02T09:31:07.209Z,65.40527344
2023-02-02T09:32:07.693Z,65.30151367
2023-02-02T09:33:08.098Z,65.61279297
2023-02-02T09:34:08.546Z,65.8203125
2023-02-02T09:35:09.156Z,65.40527344
2023-02-02T09:36:09.775Z,65.40527344
2023-02-02T09:37:10.860Z,65.5090332
2023-02-02T09:38:11.407Z,65.5090332
2023-02-02T09:39:11.848Z,65.58227539
2023-02-02T09:40:12.335Z,65.40527344
2023-02-02T09:41:13.007Z,65.40527344
2023-02-02T09:42:13.611Z,65.47851563
2023-02-02T09:43:14.169Z,65.5090332
2023-02-02T09:44:15.601Z,65.61279297
2023-02-02T09:45:16.151Z,65.61279297
2023-02-02T09:46:16.743Z,65.30151367
2023-02-02T09:47:17.882Z,65.40527344
2023-02-02T09:48:18.402Z,65.5090332
2023-02-02T09:49:18.953Z,65.30151367
2023-02-02T09:50:19.347Z,65.30151367
2023-02-02T09:51:19.975Z,65.37475586
2023-02-02T09:52:20.493Z,65.27099609
2023-02-02T09:53:21.085Z,65.09399414
2023-02-02T09:54:21.727Z,65.09399414
2023-02-02T09:55:22.412Z,65.09399414
2023-02-02T09:56:22.641Z,65.19775391
2023-02-02T09:57:23.903Z,65.30151367
2023-02-02T09:58:25.195Z,65.30151367
2023-02-02T09:59:25.680Z,65.5090332
2023-02-02T10:00:26.150Z,65.61279297
2023-02-02T10:01:26.826Z,65.71655273
2023-02-02T10:02:27.372Z,65.68603516
2023-02-02T10:03:27.939Z,65.68603516
2023-02-02T10:04:28.514Z,65.68603516
2023-02-02T10:05:29.115Z,65.68603516
2023-02-02T10:06:30.014Z,65.78979492
2023-02-02T10:08:01.782Z,65.89355469
2023-02-02T10:09:02.325Z,65.89355469
2023-02-02T10:10:02.963Z,65.99731445
2023-02-02T10:11:03.527Z,65.99731445
2023-02-02T10:12:05.048Z,65.99731445
2023-02-02T10:13:05.492Z,66.10107422
2023-02-02T10:14:06.005Z,66.10107422
2023-02-02T10:15:06.599Z,65.99731445
2023-02-02T10:16:07.237Z,65.89355469
2023-02-02T10:17:08.619Z,65.99731445
2023-02-02T10:18:09.335Z,66.10107422
2023-02-02T10:19:09.891Z,66.10107422
2023-02-02T10:20:10.589Z,66.10107422
2023-02-02T10:21:11.129Z,66.19873047
2023-02-02T10:22:11.594Z,66.40625
2023-02-02T10:23:12.195Z,66.61376953
2023-02-02T10:24:12.695Z,66.61376953
2023-02-02T10:25:13.535Z,66.51000977
2023-02-02T10:26:13.908Z,66.61376953
2023-02-02T10:27:15.122Z,66.40625
2023-02-02T10:28:15.522Z,66.51000977
2023-02-02T10:29:16.831Z,66.51000977
2023-02-02T10:30:17.306Z,66.61376953
2023-02-02T10:31:17.939Z,66.61376953
2023-02-02T10:32:18.281Z,66.51000977
2023-02-02T10:33:18.716Z,67.02880859
2023-02-02T10:34:19.214Z,67.8527832
2023-02-02T10:35:19.884Z,67.95654297
2023-02-02T10:36:20.451Z,66.99829102
2023-02-02T10:37:21.581Z,66.92504883
2023-02-02T10:38:22.201Z,67.02880859
2023-02-02T10:39:22.645Z,67.10205078
2023-02-02T10:40:23.459Z,67.20581055
2023-02-02T10:41:23.898Z,67.10205078
2023-02-02T10:42:24.505Z,67.10205078
2023-02-02T10:43:25.600Z,67.3034668
2023-02-02T10:44:26.169Z,66.99829102
2023-02-02T10:45:26.744Z,67.10205078
2023-02-02T10:46:27.646Z,66.79077148
2023-02-02T10:47:28.901Z,66.68701172
2023-02-02T10:49:01.897Z,66.68701172
2023-02-02T10:50:01.713Z,66.58325195
2023-02-02T10:51:02.335Z,66.58325195
2023-02-02T10:52:03.023Z,66.47949219
2023-02-02T10:53:03.901Z,66.34521484
2023-02-02T10:54:04.573Z,66.55273438
2023-02-02T10:55:05.198Z,66.44897461
2023-02-02T10:56:05.749Z,66.76025391
2023-02-02T10:57:07.309Z,66.24145508
2023-02-02T10:58:08.081Z,65.9362793
2023-02-02T10:59:09.719Z,65.72875977
2023-02-02T11:00:10.655Z,65.72875977
2023-02-02T11:01:11.533Z,65.9362793
2023-02-02T11:02:20.654Z,65.83251953
2023-02-02T11:03:12.759Z,65.83251953
2023-02-02T11:04:13.742Z,65.83251953